Time;durP1;ratioP1;P1;durP2;ratioP2;P2;SDS_P1;SDS_P2;PMS_P1;PMS_P2;Temp;Humidity;BMP_temperature;BMP_pressure;BME280_temperature;BME280_humidity;BME280_pressure;Samples;Min_cycle;Max_cycle;Signal;HPM_P1;HPM_P2
2022/12/09 00:01:41;;;;;;;;;;;-2.40;99.90;;;;;;5075012;28;20363;-77
2022/12/09 00:04:06;;;;;;;;;;;-2.30;99.90;;;;;;5073606;28;20011;-77
2022/12/09 00:06:35;;;;;;;;;;;-2.30;99.90;;;;;;5075264;28;19920;-78
2022/12/09 00:09:00;;;;;;;;;;;-2.40;99.90;;;;;;5075966;28;19920;-76
2022/12/09 00:11:26;;;;;;;;;;;-2.40;99.90;;;;;;5075421;28;20283;-77
2022/12/09 00:13:52;;;;;;;;;;;-2.40;99.90;;;;;;5074717;28;19926;-77
2022/12/09 00:16:18;;;;;;;;;;;-2.30;99.90;;;;;;5075906;28;19924;-77
2022/12/09 00:18:44;;;;;;;;;;;-2.30;99.90;;;;;;5073654;28;19920;-77
2022/12/09 00:21:10;;;;;;;;;;;-2.40;99.90;;;;;;5073327;28;20019;-78
2022/12/09 00:23:36;;;;;;;;;;;-2.50;99.90;;;;;;5075144;28;19946;-77
2022/12/09 00:26:01;;;;;;;;;;;-2.60;99.90;;;;;;5075219;28;19916;-77
2022/12/09 00:28:27;;;;;;;;;;;-2.70;99.90;;;;;;5070697;28;19921;-77
2022/12/09 00:30:52;;;;;;;;;;;-2.70;99.90;;;;;;5055876;28;19924;-77
2022/12/09 00:33:18;;;;;;;;;;;-2.80;99.90;;;;;;5055059;28;19925;-78
2022/12/09 00:35:43;;;;;;;;;;;-2.80;99.90;;;;;;5055943;28;19927;-77
2022/12/09 00:38:09;;;;;;;;;;;-2.70;99.90;;;;;;5054769;28;19936;-77
2022/12/09 00:40:34;;;;;;;;;;;-2.70;99.90;;;;;;5072205;28;20538;-77
2022/12/09 00:43:02;;;;;;;;;;;-2.70;99.90;;;;;;5074796;28;20003;-77
2022/12/09 00:45:28;;;;;;;;;;;-2.80;99.90;;;;;;5074986;28;19924;-77
2022/12/09 00:47:53;;;;;;;;;;;-2.90;99.90;;;;;;5072872;28;19927;-77
2022/12/09 00:50:19;;;;;;;;;;;-2.80;99.90;;;;;;5074388;28;20326;-76
2022/12/09 00:52:44;;;;;;;;;;;-2.90;99.90;;;;;;5075281;28;19924;-76
2022/12/09 00:55:10;;;;;;;;;;;-2.80;99.90;;;;;;5058949;28;20333;-76
2022/12/09 00:57:35;;;;;;;;;;;-2.90;99.90;;;;;;5055007;28;19927;-76
2022/12/09 01:00:02;;;;;;;;;;;-2.80;99.90;;;;;;5054743;28;19971;-76
2022/12/09 01:02:31;;;;;;;;;;;-2.80;99.90;;;;;;5054611;28;20334;-76
2022/12/09 01:04:56;;;;;;;;;;;-2.80;99.90;;;;;;5054998;28;20015;-76
2022/12/09 01:07:25;;;;;;;;;;;-2.60;99.90;;;;;;5055069;28;20016;-76
2022/12/09 01:09:50;;;;;;;;;;;-2.70;99.90;;;;;;5054817;28;19921;-75
2022/12/09 01:12:16;;;;;;;;;;;-2.70;99.90;;;;;;5087306;28;19927;-77
2022/12/09 01:14:41;;;;;;;;;;;-2.70;99.90;;;;;;5054482;28;19920;-77
2022/12/09 01:17:07;;;;;;;;;;;-2.70;99.90;;;;;;5053494;28;20384;-76
2022/12/09 01:19:33;;;;;;;;;;;-2.70;99.90;;;;;;5063365;28;19916;-77
2022/12/09 01:21:58;;;;;;;;;;;-2.80;99.90;;;;;;5070689;28;19927;-76
2022/12/09 01:24:24;;;;;;;;;;;-2.90;99.90;;;;;;5072665;28;20011;-76
2022/12/09 01:26:49;;;;;;;;;;;-3.00;99.90;;;;;;5074154;28;20290;-76
2022/12/09 01:29:15;;;;;;;;;;;-3.10;99.90;;;;;;5067279;28;19924;-76
2022/12/09 01:31:40;;;;;;;;;;;-3.00;99.90;;;;;;5054286;28;19921;-76
2022/12/09 01:34:06;;;;;;;;;;;-3.00;99.90;;;;;;5054084;28;19991;-76
2022/12/09 01:36:31;;;;;;;;;;;-3.00;99.90;;;;;;5053936;28;19920;-76
2022/12/09 01:38:58;;;;;;;;;;;-3.00;99.90;;;;;;5054636;28;19917;-77
2022/12/09 01:41:26;;;;;;;;;;;-3.00;99.90;;;;;;5068398;28;19943;-76
2022/12/09 01:44:24;;;;;;;;;;;-3.00;99.90;;;;;;5052964;28;20015;-76
2022/12/09 01:46:54;;;;;;;;;;;-3.00;99.90;;;;;;5030441;28;19925;-76
2022/12/09 01:49:22;;;;;;;;;;;-3.00;99.90;;;;;;5052729;28;19928;-76
2022/12/09 01:51:55;;;;;;;;;;;-2.90;99.90;;;;;;5053084;28;19920;-76
2022/12/09 01:54:20;;;;;;;;;;;-2.90;99.90;;;;;;5055333;28;19973;-76
2022/12/09 01:56:46;;;;;;;;;;;-2.80;99.90;;;;;;5085194;28;19921;-76
2022/12/09 01:59:13;;;;;;;;;;;-2.80;99.90;;;;;;5052942;28;20350;-76
2022/12/09 02:01:40;;;;;;;;;;;-2.80;99.90;;;;;;5054118;28;19921;-76
2022/12/09 02:04:05;;;;;;;;;;;-2.80;99.90;;;;;;5053589;28;20500;-76
2022/12/09 02:06:31;;;;;;;;;;;-0.40;99.90;;;;;;5069763;28;20424;-76
2022/12/09 02:08:57;;;;;;;;;;;-2.70;99.90;;;;;;5071084;28;19924;-76
2022/12/09 02:11:35;;;;;;;;;;;-2.70;99.90;;;;;;5073400;28;19927;-76
2022/12/09 02:14:09;;;;;;;;;;;-2.70;99.90;;;;;;5070947;28;20364;-76
2022/12/09 02:16:53;;;;;;;;;;;-2.80;99.90;;;;;;5053902;28;19928;-76
2022/12/09 02:19:42;;;;;;;;;;;-2.90;99.90;;;;;;5052734;28;19932;-76
2022/12/09 02:22:10;;;;;;;;;;;-2.70;99.90;;;;;;5052192;28;19992;-76
2022/12/09 02:24:36;;;;;;;;;;;-2.70;99.90;;;;;;5071952;28;19916;-76
2022/12/09 02:27:09;;;;;;;;;;;-2.70;99.90;;;;;;5072179;28;20033;-77
2022/12/09 02:29:34;;;;;;;;;;;-2.60;99.90;;;;;;5071843;28;19946;-77
2022/12/09 02:32:12;;;;;;;;;;;-2.60;99.90;;;;;;5071901;28;19966;-77
2022/12/09 02:34:42;;;;;;;;;;;-2.50;99.90;;;;;;5070579;28;20394;-77
2022/12/09 02:37:14;;;;;;;;;;;-2.50;99.90;;;;;;5073686;28;19982;-78
2022/12/09 02:39:46;;;;;;;;;;;-2.50;99.90;;;;;;5072399;28;20364;-77
2022/12/09 02:42:14;;;;;;;;;;;-2.50;99.90;;;;;;5073740;28;19920;-77
2022/12/09 02:44:42;;;;;;;;;;;-2.50;99.90;;;;;;5058394;28;19979;-77
2022/12/09 02:47:08;;;;;;;;;;;-2.50;99.90;;;;;;5051604;28;20291;-77
2022/12/09 02:49:34;;;;;;;;;;;-2.60;99.90;;;;;;5053297;28;20288;-77
2022/12/09 02:52:00;;;;;;;;;;;-2.60;99.90;;;;;;5052504;28;19925;-77
2022/12/09 02:54:27;;;;;;;;;;;-2.60;99.90;;;;;;5051127;28;19921;-77
2022/12/09 02:56:54;;;;;;;;;;;-2.50;99.90;;;;;;5052386;28;20342;-77
2022/12/09 02:59:20;;;;;;;;;;;-2.50;99.90;;;;;;5085378;28;19935;-77
2022/12/09 03:01:54;;;;;;;;;;;-2.40;99.90;;;;;;5051920;28;19920;-77
2022/12/09 03:04:22;;;;;;;;;;;-2.40;99.90;;;;;;5051589;28;19921;-77
2022/12/09 03:07:06;;;;;;;;;;;-2.40;99.90;;;;;;5052146;28;19927;-77
2022/12/09 03:09:33;;;;;;;;;;;-2.40;99.90;;;;;;5055550;28;19921;-77
2022/12/09 03:12:01;;;;;;;;;;;-2.40;99.90;;;;;;5055591;28;19917;-77
2022/12/09 03:14:34;;;;;;;;;;;-2.50;99.90;;;;;;5056718;28;19950;-77
2022/12/09 03:17:03;;;;;;;;;;;-2.40;99.90;;;;;;5054881;28;19925;-77
2022/12/09 03:19:47;;;;;;;;;;;-2.40;99.90;;;;;;5089499;28;20379;-77
2022/12/09 03:22:18;;;;;;;;;;;-2.40;99.90;;;;;;5058762;28;19973;-77
2022/12/09 03:24:56;;;;;;;;;;;-2.40;99.90;;;;;;5075414;28;19927;-77
2022/12/09 03:27:26;;;;;;;;;;;-2.40;99.90;;;;;;5075234;28;20316;-77
2022/12/09 03:29:54;;;;;;;;;;;-2.40;99.90;;;;;;5075651;28;20015;-77
2022/12/09 03:32:22;;;;;;;;;;;-2.40;99.90;;;;;;5076259;28;20007;-77
2022/12/09 03:34:49;;;;;;;;;;;-2.50;99.90;;;;;;5076464;28;20019;-77
2022/12/09 03:37:17;;;;;;;;;;;-2.40;99.90;;;;;;5074569;28;19920;-77
2022/12/09 03:39:43;;;;;;;;;;;-2.40;99.90;;;;;;5076777;28;19951;-77
2022/12/09 03:42:13;;;;;;;;;;;-2.50;99.90;;;;;;5073212;28;19920;-77
2022/12/09 03:44:42;;;;;;;;;;;-2.40;99.90;;;;;;5056218;28;20039;-77
2022/12/09 03:47:08;;;;;;;;;;;-0.60;99.90;;;;;;5056188;28;19920;-77
2022/12/09 03:49:34;;;;;;;;;;;-2.40;99.90;;;;;;5056471;28;20268;-77
2022/12/09 03:52:18;;;;;;;;;;;-2.40;99.90;;;;;;5055174;28;19927;-77
2022/12/09 03:54:45;;;;;;;;;;;-2.40;99.90;;;;;;5074948;28;21967;-77
2022/12/09 03:57:13;;;;;;;;;;;-2.40;99.90;;;;;;5075362;28;20593;-77
2022/12/09 03:59:43;;;;;;;;;;;-2.40;99.90;;;;;;5076160;28;19921;-77
2022/12/09 04:02:09;;;;;;;;;;;-2.50;99.90;;;;;;5075997;28;19920;-77
2022/12/09 04:04:37;;;;;;;;;;;-2.50;99.90;;;;;;5075666;28;20276;-76
2022/12/09 04:07:02;;;;;;;;;;;-2.50;99.90;;;;;;5075439;28;20343;-76
2022/12/09 04:09:28;;;;;;;;;;;-2.50;99.90;;;;;;5061719;28;19966;-77
2022/12/09 04:11:53;;;;;;;;;;;-2.50;99.90;;;;;;5055097;28;19920;-77
2022/12/09 04:14:22;;;;;;;;;;;-2.70;99.90;;;;;;5056020;28;19925;-77
2022/12/09 04:16:50;;;;;;;;;;;-2.60;99.90;;;;;;5055411;28;19921;-77
2022/12/09 04:19:16;;;;;;;;;;;-2.60;99.90;;;;;;5055011;28;20019;-77
2022/12/09 04:21:41;;;;;;;;;;;-2.60;99.90;;;;;;5057775;28;20016;-77
2022/12/09 04:24:10;;;;;;;;;;;-2.60;99.90;;;;;;5075087;28;20018;-77
2022/12/09 04:26:36;;;;;;;;;;;-2.50;99.90;;;;;;5073539;28;20363;-77
2022/12/09 04:29:01;;;;;;;;;;;-2.50;99.90;;;;;;5075289;28;19920;-77
2022/12/09 04:31:27;;;;;;;;;;;-2.50;99.90;;;;;;5073045;28;19928;-77
2022/12/09 04:33:52;;;;;;;;;;;-2.50;99.90;;;;;;5054405;28;19924;-77
2022/12/09 04:36:18;;;;;;;;;;;-2.40;99.90;;;;;;5055098;28;19921;-77
2022/12/09 04:38:44;;;;;;;;;;;-2.50;99.90;;;;;;5059679;28;19966;-77
2022/12/09 04:41:10;;;;;;;;;;;-2.50;99.90;;;;;;5074768;28;20277;-77
2022/12/09 04:43:35;;;;;;;;;;;-2.50;99.90;;;;;;5074472;28;20388;-77
2022/12/09 04:46:02;;;;;;;;;;;-2.50;99.90;;;;;;5075027;28;20018;-77
2022/12/09 04:48:28;;;;;;;;;;;-2.50;99.90;;;;;;5072082;28;19928;-77
2022/12/09 04:50:58;;;;;;;;;;;-2.60;99.90;;;;;;5054954;28;20402;-77
2022/12/09 04:53:24;;;;;;;;;;;-2.50;99.90;;;;;;5054282;28;19931;-77
2022/12/09 04:55:57;;;;;;;;;;;-2.50;99.90;;;;;;5055264;28;19925;-77
2022/12/09 04:58:22;;;;;;;;;;;-2.50;99.90;;;;;;5055454;28;20405;-77
2022/12/09 05:00:48;;;;;;;;;;;-2.50;99.90;;;;;;5072993;28;19963;-77
2022/12/09 05:03:13;;;;;;;;;;;-2.40;99.90;;;;;;5073647;28;19963;-77
2022/12/09 05:05:39;;;;;;;;;;;-2.40;99.90;;;;;;5075064;28;19925;-77
2022/12/09 05:08:05;;;;;;;;;;;-2.30;99.90;;;;;;5073627;28;20276;-77
2022/12/09 05:10:31;;;;;;;;;;;-2.30;99.90;;;;;;5075061;28;19990;-77
2022/12/09 05:12:56;;;;;;;;;;;-2.20;99.90;;;;;;5074521;28;20355;-77
2022/12/09 05:15:22;;;;;;;;;;;-2.20;99.90;;;;;;5065929;28;19971;-76
2022/12/09 05:17:47;;;;;;;;;;;-2.20;99.90;;;;;;5073039;28;20018;-77
2022/12/09 05:20:15;;;;;;;;;;;-2.20;99.90;;;;;;5074618;28;20014;-77
2022/12/09 05:22:41;;;;;;;;;;;-2.20;99.90;;;;;;5074169;28;20028;-77
2022/12/09 05:25:07;;;;;;;;;;;-2.30;99.90;;;;;;5074201;28;19928;-78
2022/12/09 05:27:32;;;;;;;;;;;-2.30;99.90;;;;;;5073252;28;19921;-77
2022/12/09 05:29:58;;;;;;;;;;;-2.20;99.90;;;;;;5061167;28;19967;-77
2022/12/09 05:32:23;;;;;;;;;;;-2.10;99.90;;;;;;5054495;28;19928;-77
2022/12/09 05:34:49;;;;;;;;;;;-2.00;99.90;;;;;;5053987;28;19925;-78
2022/12/09 05:37:15;;;;;;;;;;;-1.90;99.90;;;;;;5055524;28;19924;-78
2022/12/09 05:39:40;;;;;;;;;;;-1.80;99.90;;;;;;5074359;28;19928;-78
2022/12/09 05:42:06;;;;;;;;;;;-1.60;99.90;;;;;;5069074;28;19925;-78
2022/12/09 05:44:32;;;;;;;;;;;-1.50;99.90;;;;;;5053496;28;19921;-78
2022/12/09 05:46:57;;;;;;;;;;;-1.40;99.90;;;;;;5053302;28;19968;-78
2022/12/09 05:49:26;;;;;;;;;;;-1.30;99.90;;;;;;5053290;28;19974;-78
2022/12/09 05:51:54;;;;;;;;;;;-1.20;99.90;;;;;;5053532;28;19921;-78
2022/12/09 05:54:23;;;;;;;;;;;-1.10;99.90;;;;;;5086945;28;19972;-78
2022/12/09 05:56:48;;;;;;;;;;;-1.00;99.90;;;;;;5055644;28;19964;-77
2022/12/09 05:59:14;;;;;;;;;;;-1.00;99.90;;;;;;5054822;28;20419;-78
2022/12/09 06:01:39;;;;;;;;;;;-0.90;99.90;;;;;;5069524;28;20334;-76
2022/12/09 06:04:05;;;;;;;;;;;-0.90;99.90;;;;;;5063911;28;20557;-77
2022/12/09 06:06:30;;;;;;;;;;;-0.90;99.90;;;;;;5069634;28;19943;-74
2022/12/09 06:08:57;;;;;;;;;;;-0.90;99.90;;;;;;5069511;28;20402;-78
2022/12/09 06:11:23;;;;;;;;;;;0.80;99.90;;;;;;5062960;28;19974;-78
2022/12/09 06:13:52;;;;;;;;;;;-0.90;99.90;;;;;;5068185;28;19924;-78
2022/12/09 06:16:21;;;;;;;;;;;-0.90;99.90;;;;;;5055205;28;19920;-78
2022/12/09 06:18:47;;;;;;;;;;;-0.40;99.90;;;;;;5056308;28;19921;-73
2022/12/09 06:21:13;;;;;;;;;;;-1.00;99.90;;;;;;5066642;28;19966;-72
2022/12/09 06:23:42;;;;;;;;;;;-1.00;99.90;;;;;;5071295;28;19920;-82
2022/12/09 06:26:37;;;;;;;;;;;-1.10;99.90;;;;;;5070296;28;20337;-84
2022/12/09 06:29:02;;;;;;;;;;;-1.10;99.90;;;;;;5056366;28;19928;-84
2022/12/09 06:31:28;;;;;;;;;;;-1.30;99.90;;;;;;5066055;28;19932;-76
2022/12/09 06:33:54;;;;;;;;;;;-1.30;99.90;;;;;;5069970;28;19966;-77
2022/12/09 06:36:19;;;;;;;;;;;-1.30;99.90;;;;;;5065369;28;19925;-76
2022/12/09 06:38:45;;;;;;;;;;;-1.30;99.90;;;;;;5067935;28;19943;-74
2022/12/09 06:41:12;;;;;;;;;;;-1.30;99.90;;;;;;5062371;28;19974;-70
2022/12/09 06:43:38;;;;;;;;;;;-1.30;99.90;;;;;;5058963;28;20425;-75
2022/12/09 06:46:10;;;;;;;;;;;-1.30;99.90;;;;;;5070875;28;19920;-75
2022/12/09 06:48:35;;;;;;;;;;;-1.30;99.90;;;;;;5072194;28;20314;-70
2022/12/09 06:51:04;;;;;;;;;;;-1.30;99.90;;;;;;5051988;28;19921;-71
2022/12/09 06:53:29;;;;;;;;;;;-1.30;99.90;;;;;;5065638;28;20383;-73
2022/12/09 06:55:55;;;;;;;;;;;-1.30;99.90;;;;;;5052656;28;19928;-73
2022/12/09 06:58:20;;;;;;;;;;;-1.30;99.90;;;;;;5052896;28;19927;-76
2022/12/09 07:00:46;;;;;;;;;;;-1.30;99.90;;;;;;5079058;28;19939;-72
2022/12/09 07:03:11;;;;;;;;;;;-1.30;99.90;;;;;;5067358;28;19924;-72
2022/12/09 07:05:37;;;;;;;;;;;-1.30;99.90;;;;;;5056351;28;20002;-71
2022/12/09 07:08:02;;;;;;;;;;;-1.40;99.90;;;;;;5068610;28;19931;-70
2022/12/09 07:10:28;;;;;;;;;;;-1.40;99.90;;;;;;5061996;28;19928;-70
2022/12/09 07:12:54;;;;;;;;;;;-1.40;99.90;;;;;;5064147;28;19935;-72
2022/12/09 07:15:19;;;;;;;;;;;-1.40;99.90;;;;;;5060205;28;19928;-73
2022/12/09 07:17:45;;;;;;;;;;;-1.40;99.90;;;;;;5063781;28;19989;-70
2022/12/09 07:20:10;;;;;;;;;;;0.70;99.90;;;;;;5062799;28;20322;-71
2022/12/09 07:22:36;;;;;;;;;;;-1.50;99.90;;;;;;5066300;28;19974;-72
2022/12/09 07:25:02;;;;;;;;;;;-1.50;99.90;;;;;;5059390;28;19964;-74
2022/12/09 07:27:27;;;;;;;;;;;-1.50;99.90;;;;;;5061467;28;19923;-72
2022/12/09 07:29:53;;;;;;;;;;;-1.40;99.90;;;;;;5062199;28;20277;-72
2022/12/09 07:32:18;;;;;;;;;;;-1.20;99.90;;;;;;5060519;28;19963;-86
2022/12/09 07:34:44;;;;;;;;;;;-1.50;99.90;;;;;;5060730;28;19924;-72
2022/12/09 07:37:10;;;;;;;;;;;-1.50;99.90;;;;;;5059244;28;19971;-77
2022/12/09 07:39:35;;;;;;;;;;;-1.50;99.90;;;;;;5063933;28;19921;-80
2022/12/09 07:42:01;;;;;;;;;;;-1.50;99.90;;;;;;5061914;28;19927;-76
2022/12/09 07:44:29;;;;;;;;;;;-1.50;99.90;;;;;;5066598;28;19928;-84
2022/12/09 07:46:55;;;;;;;;;;;-1.50;99.90;;;;;;5058346;28;19971;-77
2022/12/09 07:49:21;;;;;;;;;;;-1.50;99.90;;;;;;5069291;28;19932;-75
2022/12/09 07:51:46;;;;;;;;;;;-1.60;99.90;;;;;;5082836;28;19920;-71
2022/12/09 07:54:13;;;;;;;;;;;-1.60;99.90;;;;;;5060209;28;19974;-73
2022/12/09 07:56:38;;;;;;;;;;;-1.70;99.90;;;;;;5060824;28;20249;-71
2022/12/09 07:59:05;;;;;;;;;;;-1.70;99.90;;;;;;5055390;28;19943;-77
2022/12/09 08:01:31;;;;;;;;;;;-1.80;99.90;;;;;;5065616;28;19973;-76
2022/12/09 08:03:56;;;;;;;;;;;-1.80;99.90;;;;;;5067262;28;19921;-75
2022/12/09 08:06:24;;;;;;;;;;;-1.70;99.90;;;;;;5065181;28;19920;-73
2022/12/09 08:08:49;;;;;;;;;;;-1.70;99.90;;;;;;5067325;28;19931;-76
2022/12/09 08:11:20;;;;;;;;;;;-1.70;99.90;;;;;;5062204;28;19920;-73
2022/12/09 08:13:45;;;;;;;;;;;-1.70;99.90;;;;;;5066699;28;19926;-71
2022/12/09 08:16:12;;;;;;;;;;;-1.70;99.90;;;;;;5062229;28;20340;-71
2022/12/09 08:18:38;;;;;;;;;;;-1.70;99.90;;;;;;5064371;28;19924;-70
2022/12/09 08:21:05;;;;;;;;;;;-1.60;99.90;;;;;;5064461;28;20376;-71
2022/12/09 08:23:31;;;;;;;;;;;-1.50;99.90;;;;;;5064875;28;19979;-84
2022/12/09 08:25:56;;;;;;;;;;;-1.50;99.90;;;;;;5061951;28;20311;-73
2022/12/09 08:28:25;;;;;;;;;;;-1.40;99.90;;;;;;5075368;28;19943;-72
2022/12/09 08:30:50;;;;;;;;;;;-1.30;99.90;;;;;;5075430;28;20287;-77
2022/12/09 08:33:16;;;;;;;;;;;1.10;99.90;;;;;;5069111;28;19921;-83
2022/12/09 08:35:42;;;;;;;;;;;-1.00;99.90;;;;;;5059606;28;20356;-74
2022/12/09 08:38:07;;;;;;;;;;;-0.90;99.90;;;;;;5066091;28;20392;-76
2022/12/09 08:40:33;;;;;;;;;;;0.50;99.90;;;;;;5069982;28;20232;-77
2022/12/09 08:42:58;;;;;;;;;;;-0.20;99.90;;;;;;5069557;28;19920;-77
2022/12/09 08:45:24;;;;;;;;;;;-0.10;99.90;;;;;;5062972;28;19960;-77
2022/12/09 08:47:49;;;;;;;;;;;-0.20;99.90;;;;;;5064447;28;19920;-78
2022/12/09 08:50:15;;;;;;;;;;;0.10;99.90;;;;;;5063162;28;20015;-79
2022/12/09 08:52:41;;;;;;;;;;;1.00;99.90;;;;;;5065521;28;19927;-79
2022/12/09 08:55:07;;;;;;;;;;;3.40;99.90;;;;;;5069789;28;19970;-80
2022/12/09 08:57:33;;;;;;;;;;;3.20;99.90;;;;;;5069420;28;20371;-79
2022/12/09 08:59:58;;;;;;;;;;;4.00;99.90;;;;;;5070247;28;19995;-79
2022/12/09 09:02:24;;;;;;;;;;;4.50;99.90;;;;;;5073989;28;19924;-79
2022/12/09 09:04:49;;;;;;;;;;;5.00;99.90;;;;;;5073793;28;20367;-79
2022/12/09 09:07:15;;;;;;;;;;;5.40;99.90;;;;;;5068653;28;19920;-79
2022/12/09 09:09:40;;;;;;;;;;;5.60;99.90;;;;;;5058872;28;19928;-78
2022/12/09 09:12:06;;;;;;;;;;;5.20;99.90;;;;;;5052557;28;19921;-76
2022/12/09 09:14:31;;;;;;;;;;;5.30;99.90;;;;;;5068562;28;19975;-75
2022/12/09 09:16:57;;;;;;;;;;;4.60;99.90;;;;;;5072555;28;19973;-76
2022/12/09 09:19:26;;;;;;;;;;;4.40;99.90;;;;;;5072976;28;20375;-85
2022/12/09 09:21:52;;;;;;;;;;;3.10;99.90;;;;;;5072640;28;19927;-80
2022/12/09 09:24:18;;;;;;;;;;;2.40;99.90;;;;;;5063658;28;19921;-81
2022/12/09 09:26:45;;;;;;;;;;;2.10;99.90;;;;;;5055115;28;19974;-72
2022/12/09 09:29:11;;;;;;;;;;;1.80;99.90;;;;;;5053518;28;19928;-82
2022/12/09 09:31:36;;;;;;;;;;;2.00;99.90;;;;;;5054662;28;19920;-77
2022/12/09 09:34:02;;;;;;;;;;;2.40;99.90;;;;;;5054061;28;19921;-79
2022/12/09 09:36:28;;;;;;;;;;;1.60;99.90;;;;;;5053844;28;20360;-79
2022/12/09 09:38:55;;;;;;;;;;;1.60;99.90;;;;;;5055183;28;19924;-79
2022/12/09 09:41:39;;;;;;;;;;;1.50;99.90;;;;;;5055170;28;19950;-81
2022/12/09 09:44:16;;;;;;;;;;;1.30;99.90;;;;;;5053907;28;20021;-80
2022/12/09 09:46:43;;;;;;;;;;;1.20;99.90;;;;;;5059945;28;19920;-77
2022/12/09 09:49:35;;;;;;;;;;;1.30;99.90;;;;;;5057656;28;19927;-75
2022/12/09 09:52:07;;;;;;;;;;;1.20;99.90;;;;;;5052491;28;20372;-76
2022/12/09 09:54:32;;;;;;;;;;;1.20;99.90;;;;;;5056718;28;19999;-75
2022/12/09 09:57:09;;;;;;;;;;;1.00;99.90;;;;;;5066119;28;20331;-76
2022/12/09 09:59:51;;;;;;;;;;;1.00;99.90;;;;;;5053724;28;19932;-77
2022/12/09 10:02:25;;;;;;;;;;;0.90;99.90;;;;;;5053792;28;19928;-83
2022/12/09 10:04:51;;;;;;;;;;;0.90;99.90;;;;;;5063647;28;19927;-81
2022/12/09 10:07:23;;;;;;;;;;;1.00;99.90;;;;;;5058922;28;19921;-78
2022/12/09 10:09:48;;;;;;;;;;;0.90;99.90;;;;;;5057905;28;19953;-74
2022/12/09 10:12:18;;;;;;;;;;;0.90;99.90;;;;;;5066455;28;19928;-78
2022/12/09 10:14:49;;;;;;;;;;;1.30;99.90;;;;;;5073298;28;19993;-76
2022/12/09 10:17:15;;;;;;;;;;;0.90;99.90;;;;;;5054896;28;19920;-81
2022/12/09 10:19:42;;;;;;;;;;;0.90;99.90;;;;;;5052740;28;19923;-81
2022/12/09 10:22:20;;;;;;;;;;;2.10;99.90;;;;;;5051825;28;20287;-82
2022/12/09 10:24:47;;;;;;;;;;;1.00;99.90;;;;;;5061038;28;19924;-79
2022/12/09 10:27:19;;;;;;;;;;;1.10;99.90;;;;;;5068602;28;19924;-89
2022/12/09 10:29:52;;;;;;;;;;;1.20;99.90;;;;;;5072577;28;19927;-85
2022/12/09 10:32:18;;;;;;;;;;;1.20;99.90;;;;;;5072533;28;19923;-81
2022/12/09 10:34:45;;;;;;;;;;;1.30;99.90;;;;;;5073545;28;20351;-80
2022/12/09 10:37:23;;;;;;;;;;;1.70;99.90;;;;;;5073401;28;19924;-84
2022/12/09 10:39:50;;;;;;;;;;;1.40;99.90;;;;;;5070858;28;19960;-77
2022/12/09 10:45:04;;;;;;;;;;;1.60;99.90;;;;;;5058005;28;19924;-80
2022/12/09 10:47:30;;;;;;;;;;;1.60;99.90;;;;;;5072984;28;20019;-75
2022/12/09 10:49:57;;;;;;;;;;;1.70;99.90;;;;;;5071539;28;19952;-80
2022/12/09 10:52:30;;;;;;;;;;;2.60;99.90;;;;;;5066990;28;19920;-77
2022/12/09 10:54:56;;;;;;;;;;;1.90;99.90;;;;;;5052751;28;20364;-76
2022/12/09 10:57:23;;;;;;;;;;;2.40;99.90;;;;;;5052819;28;19921;-84
2022/12/09 11:00:00;;;;;;;;;;;1.80;99.90;;;;;;5050697;28;19916;-80
2022/12/09 11:02:29;;;;;;;;;;;1.80;99.90;;;;;;5087436;28;19989;-80
2022/12/09 11:04:54;;;;;;;;;;;3.30;99.90;;;;;;5072444;28;19942;-81
2022/12/09 11:07:22;;;;;;;;;;;2.10;99.90;;;;;;5071800;28;19920;-80
2022/12/09 11:09:48;;;;;;;;;;;3.10;99.90;;;;;;5071312;28;20004;-81
2022/12/09 11:12:23;;;;;;;;;;;2.10;99.90;;;;;;5070776;28;19955;-80
2022/12/09 11:14:53;;;;;;;;;;;2.10;99.90;;;;;;5053060;28;19951;-74
2022/12/09 11:17:20;;;;;;;;;;;2.20;99.90;;;;;;5052973;28;19924;-82
2022/12/09 11:19:49;;;;;;;;;;;2.20;99.90;;;;;;5052542;28;19991;-82
2022/12/09 11:22:27;;;;;;;;;;;3.00;99.90;;;;;;5051318;28;19920;-88
2022/12/09 11:24:54;;;;;;;;;;;2.10;99.90;;;;;;5051403;28;19928;-79
2022/12/09 11:27:29;;;;;;;;;;;2.10;99.90;;;;;;5061753;28;19924;-82
2022/12/09 11:30:03;;;;;;;;;;;1.90;99.90;;;;;;5059424;28;20360;-83
2022/12/09 11:32:29;;;;;;;;;;;2.00;99.90;;;;;;5055529;28;19924;-76
2022/12/09 11:34:55;;;;;;;;;;;3.10;99.90;;;;;;5055506;28;20297;-75
2022/12/09 11:37:20;;;;;;;;;;;1.70;99.90;;;;;;5056547;28;20323;-76
2022/12/09 11:39:49;;;;;;;;;;;1.60;99.90;;;;;;5055140;28;19925;-76
2022/12/09 11:42:16;;;;;;;;;;;1.70;99.90;;;;;;5066292;28;20222;-74
2022/12/09 11:44:57;;;;;;;;;;;1.80;99.90;;;;;;5060472;28;20280;-75
2022/12/09 11:47:30;;;;;;;;;;;1.90;99.90;;;;;;5055875;28;19921;-74
2022/12/09 11:50:02;;;;;;;;;;;1.90;99.90;;;;;;5056317;28;19928;-72
2022/12/09 11:52:28;;;;;;;;;;;3.20;99.90;;;;;;5069226;28;19952;-74
2022/12/09 11:54:55;;;;;;;;;;;1.90;99.90;;;;;;5075274;28;19965;-77
2022/12/09 11:57:40;;;;;;;;;;;1.90;99.90;;;;;;5073914;28;20372;-76
2022/12/09 12:00:14;;;;;;;;;;;2.00;99.90;;;;;;5074478;28;19931;-85
2022/12/09 12:02:46;;;;;;;;;;;2.00;99.90;;;;;;5063359;28;19921;-87
2022/12/09 12:05:11;;;;;;;;;;;2.00;99.90;;;;;;5088507;28;19971;-85
2022/12/09 12:07:46;;;;;;;;;;;1.80;99.90;;;;;;5067704;28;19967;-77
2022/12/09 12:10:18;;;;;;;;;;;-0.30;99.90;;;;;;5055088;28;19921;-78
2022/12/09 12:13:02;;;;;;;;;;;1.90;99.90;;;;;;5054581;28;19928;-76
2022/12/09 12:15:37;;;;;;;;;;;1.90;99.90;;;;;;5055865;28;19920;-75
2022/12/09 12:18:03;;;;;;;;;;;1.80;99.90;;;;;;5053184;28;19921;-73
2022/12/09 12:20:49;;;;;;;;;;;1.70;99.90;;;;;;5061803;28;20295;-76
2022/12/09 12:23:33;;;;;;;;;;;1.80;99.90;;;;;;5072280;28;20291;-76
2022/12/09 12:26:01;;;;;;;;;;;0.90;99.90;;;;;;5074933;28;19920;-79
2022/12/09 12:28:46;;;;;;;;;;;1.90;99.90;;;;;;5073875;28;19920;-73
2022/12/09 12:31:17;;;;;;;;;;;1.80;99.90;;;;;;5073605;28;19920;-77
2022/12/09 12:33:45;;;;;;;;;;;1.80;99.90;;;;;;5069737;28;20376;-76
2022/12/09 12:36:11;;;;;;;;;;;1.90;99.90;;;;;;5090629;28;19927;-76
2022/12/09 12:38:46;;;;;;;;;;;2.00;99.90;;;;;;5074970;28;19920;-75
2022/12/09 12:41:15;;;;;;;;;;;2.70;99.90;;;;;;5074567;28;20359;-76
2022/12/09 12:46:37;;;;;;;;;;;1.80;99.90;;;;;;5074431;28;19968;-78
2022/12/09 12:49:15;;;;;;;;;;;1.90;99.90;;;;;;5074284;28;19983;-76
2022/12/09 12:52:10;;;;;;;;;;;1.90;99.90;;;;;;5073315;28;20265;-74
2022/12/09 12:54:35;;;;;;;;;;;2.00;99.90;;;;;;5043129;28;19954;-77
2022/12/09 12:57:05;;;;;;;;;;;4.00;99.90;;;;;;5087305;28;20394;-75
2022/12/09 12:59:42;;;;;;;;;;;3.20;99.90;;;;;;5065120;28;19920;-76
2022/12/09 13:02:17;;;;;;;;;;;3.20;99.90;;;;;;5073493;28;19920;-76
2022/12/09 13:04:55;;;;;;;;;;;1.90;99.90;;;;;;5060010;28;20065;-76
2022/12/09 13:07:23;;;;;;;;;;;2.00;99.90;;;;;;5053768;28;20275;-76
2022/12/09 13:09:55;;;;;;;;;;;1.80;99.90;;;;;;5055176;28;20295;-76
2022/12/09 13:12:52;;;;;;;;;;;1.80;99.90;;;;;;5054709;28;19963;-80
2022/12/09 13:15:11;;;;;;;;;;;2.30;99.90;;;;;;5054224;28;20395;-80
2022/12/09 13:17:37;;;;;;;;;;;1.90;99.90;;;;;;5054639;28;19920;-79
2022/12/09 13:20:03;;;;;;;;;;;1.80;99.90;;;;;;5065462;28;19923;-73
2022/12/09 13:22:41;;;;;;;;;;;1.90;99.90;;;;;;5074462;28;19920;-73
2022/12/09 13:25:18;;;;;;;;;;;1.90;99.90;;;;;;5074459;28;19921;-72
2022/12/09 13:27:49;;;;;;;;;;;1.90;99.90;;;;;;5070613;28;19920;-74
2022/12/09 13:30:21;;;;;;;;;;;1.90;99.90;;;;;;5054368;28;20012;-72
2022/12/09 13:33:05;;;;;;;;;;;2.00;99.90;;;;;;5054149;28;20341;-70
2022/12/09 13:35:36;;;;;;;;;;;1.90;99.90;;;;;;5073537;28;19926;-73
2022/12/09 13:38:02;;;;;;;;;;;2.00;99.90;;;;;;5073968;28;19920;-73
2022/12/09 13:40:30;;;;;;;;;;;3.40;99.90;;;;;;5074077;28;20496;-72
2022/12/09 13:43:08;;;;;;;;;;;2.10;99.90;;;;;;5071737;28;20397;-74
2022/12/09 13:45:35;;;;;;;;;;;3.10;99.90;;;;;;5072216;28;19931;-73
2022/12/09 13:48:20;;;;;;;;;;;2.40;99.90;;;;;;5073065;28;19932;-73
2022/12/09 13:50:58;;;;;;;;;;;2.10;99.90;;;;;;5038504;28;19920;-73
2022/12/09 13:53:28;;;;;;;;;;;2.10;99.90;;;;;;5052407;28;19960;-72
2022/12/09 13:55:59;;;;;;;;;;;2.10;99.90;;;;;;5071145;28;19943;-77
2022/12/09 13:58:24;;;;;;;;;;;2.00;99.90;;;;;;5072333;28;19920;-74
2022/12/09 14:00:58;;;;;;;;;;;2.10;99.90;;;;;;5074010;28;19924;-74
2022/12/09 14:03:32;;;;;;;;;;;2.20;99.90;;;;;;5072989;28;19943;-74
2022/12/09 14:05:59;;;;;;;;;;;2.30;99.90;;;;;;5071438;28;19924;-74
2022/12/09 14:08:29;;;;;;;;;;;2.20;99.90;;;;;;5073566;28;19921;-74
2022/12/09 14:10:55;;;;;;;;;;;2.20;99.90;;;;;;5071492;28;20011;-74
2022/12/09 14:13:27;;;;;;;;;;;2.20;99.90;;;;;;5073685;28;19963;-74
2022/12/09 14:16:08;;;;;;;;;;;2.20;99.90;;;;;;5053551;28;19954;-75
2022/12/09 14:18:33;;;;;;;;;;;4.00;99.90;;;;;;5053580;28;19921;-74
2022/12/09 14:21:17;;;;;;;;;;;3.20;99.90;;;;;;5053520;28;20283;-73
2022/12/09 14:24:01;;;;;;;;;;;2.40;99.90;;;;;;5085066;28;19920;-73
2022/12/09 14:26:45;;;;;;;;;;;2.50;99.90;;;;;;5061587;28;19921;-74
2022/12/09 14:29:31;;;;;;;;;;;2.50;99.90;;;;;;5054164;28;19921;-74
2022/12/09 14:32:02;;;;;;;;;;;2.60;99.90;;;;;;5051974;28;19927;-75
2022/12/09 14:34:32;;;;;;;;;;;2.50;99.90;;;;;;5061488;28;19927;-75
2022/12/09 14:37:07;;;;;;;;;;;2.40;99.90;;;;;;5072332;28;19958;-74